Time;durP1;ratioP1;P1;durP2;ratioP2;P2;SDS_P1;SDS_P2;PMS_P1;PMS_P2;Temp;Humidity;BMP_temperature;BMP_pressure;BME280_temperature;BME280_humidity;BME280_pressure;Samples;Min_cycle;Max_cycle;Signal;HPM_P1;HPM_P2
2024/04/13 00:01:56;;;;;;;7.10;6.23;;;12.00;71.20;;;;;;5491315;26;20504;-71
2024/04/13 00:04:23;;;;;;;6.77;6.07;;;12.00;71.50;;;;;;5490967;26;20522;-71
2024/04/13 00:06:53;;;;;;;6.50;5.18;;;12.00;71.20;;;;;;5491434;26;20524;-71
2024/04/13 00:09:20;;;;;;;8.95;6.53;;;12.10;71.60;;;;;;5491193;26;20241;-71
2024/04/13 00:11:49;;;;;;;6.03;5.43;;;12.10;71.70;;;;;;5491157;26;20601;-71
2024/04/13 00:14:15;;;;;;;7.60;6.05;;;12.10;70.90;;;;;;5490841;26;20460;-71
2024/04/13 00:16:46;;;;;;;7.80;6.00;;;12.10;69.40;;;;;;5490987;26;20256;-71
2024/04/13 00:19:15;;;;;;;7.20;5.93;;;12.10;69.60;;;;;;5490833;26;20980;-71
2024/04/13 00:21:45;;;;;;;9.65;6.53;;;12.10;68.90;;;;;;5491015;26;20451;-71
2024/04/13 00:24:11;;;;;;;7.30;5.50;;;12.10;68.60;;;;;;5490780;26;20712;-71
2024/04/13 00:26:40;;;;;;;6.57;5.70;;;12.00;68.70;;;;;;5490977;26;20455;-71
2024/04/13 00:29:06;;;;;;;6.93;5.90;;;12.00;68.20;;;;;;5490959;26;20222;-71
2024/04/13 00:31:35;;;;;;;9.23;5.20;;;12.00;68.40;;;;;;5490876;26;20800;-71
2024/04/13 00:34:04;;;;;;;7.70;5.90;;;12.00;67.90;;;;;;5490581;26;20463;-71
2024/04/13 00:36:35;;;;;;;7.82;5.82;;;12.00;67.50;;;;;;5491065;26;20451;-71
2024/04/13 00:39:02;;;;;;;7.05;5.72;;;11.90;67.70;;;;;;5490832;26;20218;-71
2024/04/13 00:41:33;;;;;;;6.35;5.32;;;11.80;67.90;;;;;;5489516;26;20265;-71
2024/04/13 00:44:00;;;;;;;6.40;5.53;;;11.80;67.90;;;;;;5490225;26;20334;-72
2024/04/13 00:46:31;;;;;;;5.55;4.90;;;11.80;68.50;;;;;;5454303;26;20723;-71
2024/04/13 00:48:59;;;;;;;6.43;5.28;;;11.70;69.40;;;;;;5454252;26;20246;-71
2024/04/13 00:51:33;;;;;;;6.38;4.78;;;11.70;69.90;;;;;;5454164;26;20223;-71
2024/04/13 00:53:59;;;;;;;5.97;4.60;;;11.70;70.10;;;;;;5473794;26;20226;-71
2024/04/13 00:56:28;;;;;;;5.97;5.38;;;11.70;68.60;;;;;;5490422;26;20222;-71
2024/04/13 00:58:56;;;;;;;8.18;6.20;;;11.70;68.20;;;;;;5490413;26;20696;-71
2024/04/13 01:01:27;;;;;;;8.10;5.30;;;11.70;69.60;;;;;;5490778;26;20238;-71
2024/04/13 01:03:53;;;;;;;5.75;5.15;;;11.60;69.30;;;;;;5490168;26;20759;-71
2024/04/13 01:06:23;;;;;;;7.80;6.20;;;11.60;69.20;;;;;;5490492;26;20230;-71
2024/04/13 01:08:52;;;;;;;7.15;4.93;;;11.60;68.80;;;;;;5490580;26;20808;-71
2024/04/13 01:11:21;;;;;;;9.05;5.93;;;11.50;68.80;;;;;;5490506;26;20219;-71
2024/04/13 01:13:47;;;;;;;6.57;5.35;;;11.50;69.40;;;;;;5489876;26;20230;-71
2024/04/13 01:16:16;;;;;;;7.15;6.22;;;11.50;69.60;;;;;;5490188;26;20215;-71
2024/04/13 01:18:43;;;;;;;6.53;5.85;;;11.50;69.40;;;;;;5490198;26;20222;-71
2024/04/13 01:21:12;;;;;;;6.75;5.20;;;11.50;68.60;;;;;;5490156;26;20219;-71
2024/04/13 01:23:44;;;;;;;8.10;6.00;;;11.50;68.00;;;;;;5489644;26;20238;-71
2024/04/13 01:26:16;;;;;;;7.60;5.40;;;11.50;68.20;;;;;;5490168;26;20624;-71
2024/04/13 01:28:42;;;;;;;5.70;4.85;;;11.40;69.40;;;;;;5489792;26;20226;-71
2024/04/13 01:31:12;;;;;;;6.30;4.90;;;11.40;69.60;;;;;;5488432;26;20282;-71
2024/04/13 01:33:38;;;;;;;8.35;5.18;;;11.40;69.80;;;;;;5489638;26;20463;-71
2024/04/13 01:36:07;;;;;;;5.10;4.40;;;11.40;69.00;;;;;;5489788;26;20300;-71
2024/04/13 01:38:35;;;;;;;6.57;5.78;;;11.30;69.10;;;;;;5489803;26;20499;-71
2024/04/13 01:41:04;;;;;;;7.10;5.85;;;11.30;68.90;;;;;;5489737;26;20314;-71
2024/04/13 01:43:33;;;;;;;7.80;6.50;;;11.30;70.80;;;;;;5489724;26;20234;-71
2024/04/13 01:46:01;;;;;;;7.30;6.10;;;11.30;70.80;;;;;;5489746;26;20206;-71
2024/04/13 01:48:27;;;;;;;9.23;6.28;;;11.30;70.50;;;;;;5489584;26;20245;-71
2024/04/13 01:50:56;;;;;;;6.30;5.63;;;11.30;68.70;;;;;;5489445;26;20238;-71
2024/04/13 01:53:22;;;;;;;6.82;6.03;;;11.30;68.20;;;;;;5489297;26;20515;-71
2024/04/13 01:55:51;;;;;;;6.80;5.37;;;11.30;68.40;;;;;;5489502;26;20266;-71
2024/04/13 01:58:17;;;;;;;13.52;6.13;;;11.30;69.20;;;;;;5489021;26;21016;-71
2024/04/13 02:00:48;;;;;;;8.20;5.43;;;11.20;69.10;;;;;;5489022;26;20318;-71
2024/04/13 02:03:14;;;;;;;5.85;4.80;;;11.20;70.10;;;;;;5489310;26;20773;-71
2024/04/13 02:05:43;;;;;;;8.47;5.33;;;11.20;69.80;;;;;;5489700;26;20268;-71
2024/04/13 02:08:09;;;;;;;7.13;5.30;;;11.20;70.10;;;;;;5489147;26;20440;-71
2024/04/13 02:10:37;;;;;;;8.70;5.73;;;11.10;70.30;;;;;;5489033;26;20215;-71
2024/04/13 02:13:06;;;;;;;7.72;5.65;;;11.10;74.30;;;;;;5489177;26;20800;-71
2024/04/13 02:15:34;;;;;;;6.38;5.53;;;11.10;74.60;;;;;;5489153;26;20242;-71
2024/04/13 02:18:03;;;;;;;9.77;5.60;;;11.10;74.00;;;;;;5489050;26;20248;-71
2024/04/13 02:20:32;;;;;;;5.32;4.72;;;11.00;73.50;;;;;;5489035;26;20261;-72
2024/04/13 02:22:58;;;;;;;6.57;4.95;;;11.10;72.30;;;;;;5452519;26;20246;-71
2024/04/13 02:25:27;;;;;;;7.00;5.80;;;11.10;71.10;;;;;;5452506;26;20215;-71
2024/04/13 02:27:53;;;;;;;6.55;4.70;;;11.00;70.70;;;;;;5452747;26;20501;-71
2024/04/13 02:30:21;;;;;;;5.30;4.50;;;11.00;70.40;;;;;;5457309;26;20239;-71
2024/04/13 02:32:47;;;;;;;7.05;4.90;;;11.00;69.70;;;;;;5486897;26;20843;-71
2024/04/13 02:35:18;;;;;;;5.40;4.57;;;10.90;69.40;;;;;;5488867;26;20258;-71
2024/04/13 02:37:44;;;;;;;7.70;5.57;;;10.90;69.20;;;;;;5488575;26;20797;-71
2024/04/13 02:40:16;;;;;;;6.83;5.97;;;10.90;70.00;;;;;;5488205;26;20291;-71
2024/04/13 02:42:42;;;;;;;5.82;4.85;;;10.90;70.50;;;;;;5491254;26;20455;-71
2024/04/13 02:45:14;;;;;;;6.13;5.18;;;10.80;69.40;;;;;;5492313;26;20692;-71
2024/04/13 02:47:40;;;;;;;7.95;4.57;;;10.80;68.90;;;;;;5492453;26;20630;-71
2024/04/13 02:50:09;;;;;;;6.15;4.70;;;10.80;70.70;;;;;;5491564;26;20230;-71
2024/04/13 02:52:38;;;;;;;5.35;4.85;;;10.80;70.20;;;;;;5492110;26;20330;-71
2024/04/13 02:55:07;;;;;;;7.05;6.35;;;10.70;70.30;;;;;;5492234;26;20249;-71
2024/04/13 02:57:33;;;;;;;7.03;5.22;;;10.80;72.00;;;;;;5492187;26;20210;-71
2024/04/13 03:00:02;;;;;;;6.55;5.65;;;10.80;70.60;;;;;;5492567;26;20584;-71
2024/04/13 03:02:28;;;;;;;5.82;4.82;;;10.70;69.20;;;;;;5491792;26;20230;-71
2024/04/13 03:04:56;;;;;;;6.00;5.23;;;10.70;69.30;;;;;;5492053;26;20229;-70
2024/04/13 03:07:23;;;;;;;6.30;4.10;;;10.70;68.40;;;;;;5491952;26;20852;-71
2024/04/13 03:09:54;;;;;;;6.68;5.07;;;10.70;67.90;;;;;;5492224;26;20214;-71
2024/04/13 03:12:20;;;;;;;6.45;4.18;;;10.60;68.10;;;;;;5491690;26;20265;-71
2024/04/13 03:14:50;;;;;;;7.38;4.53;;;10.60;68.00;;;;;;5491942;26;20222;-71
2024/04/13 03:17:15;;;;;;;6.00;5.13;;;10.60;68.10;;;;;;5492168;26;20214;-71
2024/04/13 03:19:44;;;;;;;9.23;4.93;;;10.50;69.40;;;;;;5491978;26;20256;-71
2024/04/13 03:22:10;;;;;;;5.80;5.00;;;10.50;69.70;;;;;;5491607;26;20463;-71
2024/04/13 03:24:39;;;;;;;5.53;4.57;;;10.50;68.60;;;;;;5491795;26;20272;-71
2024/04/13 03:27:09;;;;;;;5.22;3.65;;;10.50;69.10;;;;;;5491878;26;20447;-71
2024/04/13 03:29:38;;;;;;;7.40;5.13;;;10.50;69.80;;;;;;5491874;26;20214;-71
2024/04/13 03:32:05;;;;;;;7.90;5.22;;;10.40;70.10;;;;;;5491351;26;20719;-71
2024/04/13 03:34:33;;;;;;;7.07;5.20;;;10.40;70.30;;;;;;5491774;26;20318;-71
2024/04/13 03:37:00;;;;;;;5.88;4.95;;;10.30;70.20;;;;;;5491645;26;20214;-71
2024/04/13 03:39:30;;;;;;;6.57;5.30;;;10.30;70.60;;;;;;5491312;26;20588;-71
2024/04/13 03:41:58;;;;;;;8.05;4.82;;;10.30;70.10;;;;;;5491405;26;20269;-71
2024/04/13 03:44:27;;;;;;;6.53;5.30;;;10.30;70.00;;;;;;5491574;26;20241;-71
2024/04/13 03:46:55;;;;;;;6.00;4.68;;;10.20;70.30;;;;;;5491463;26;20218;-71
2024/04/13 03:49:22;;;;;;;5.57;4.72;;;10.20;70.50;;;;;;5491479;26;20210;-71
2024/04/13 03:51:52;;;;;;;5.38;4.50;;;10.10;70.00;;;;;;5491103;26;20230;-71
2024/04/13 03:54:18;;;;;;;5.60;4.82;;;10.10;69.80;;;;;;5490714;26;20562;-71
2024/04/13 03:56:48;;;;;;;4.90;4.07;;;10.10;69.80;;;;;;5491907;26;20230;-72
2024/04/13 03:59:14;;;;;;;7.60;5.00;;;10.00;69.70;;;;;;5491616;26;20961;-71
2024/04/13 04:01:45;;;;;;;6.03;4.40;;;10.00;69.70;;;;;;5491072;26;20231;-71
2024/04/13 04:04:11;;;;;;;7.70;4.90;;;10.00;70.20;;;;;;5491415;26;20456;-71
2024/04/13 04:06:39;;;;;;;9.32;4.50;;;9.90;71.10;;;;;;5491576;26;20543;-71
2024/04/13 04:09:07;;;;;;;5.38;4.18;;;9.90;71.30;;;;;;5491237;26;20326;-70
2024/04/13 04:11:35;;;;;;;6.07;4.75;;;9.90;71.80;;;;;;5491085;26;20226;-71
2024/04/13 04:14:01;;;;;;;6.22;4.80;;;9.80;72.20;;;;;;5491151;26;20291;-71
2024/04/13 04:16:30;;;;;;;5.00;3.70;;;9.80;73.60;;;;;;5491095;26;20719;-71
2024/04/13 04:18:59;;;;;;;7.03;4.13;;;9.80;72.00;;;;;;5490861;26;20835;-71
2024/04/13 04:21:27;;;;;;;6.35;4.18;;;9.70;71.80;;;;;;5490815;26;20272;-71
2024/04/13 04:23:53;;;;;;;4.93;4.43;;;9.70;73.60;;;;;;5491006;26;20234;-71
2024/04/13 04:26:22;;;;;;;5.20;4.70;;;9.70;74.50;;;;;;5491101;26;20676;-71
2024/04/13 04:28:48;;;;;;;5.70;5.10;;;9.70;74.10;;;;;;5490925;26;20523;-71
2024/04/13 04:31:16;;;;;;;8.80;6.47;;;9.70;74.30;;;;;;5490681;26;20293;-70
2024/04/13 04:33:43;;;;;;;8.85;5.93;;;9.70;74.00;;;;;;5490832;26;20514;-70
2024/04/13 04:36:14;;;;;;;9.67;6.63;;;9.70;74.40;;;;;;5490521;26;20288;-70
2024/04/13 04:38:40;;;;;;;9.43;7.07;;;9.70;74.70;;;;;;5489888;26;20460;-71
2024/04/13 04:41:09;;;;;;;7.82;7.03;;;9.70;75.10;;;;;;5489998;26;20582;-71
2024/04/13 04:43:35;;;;;;;9.15;7.00;;;9.80;74.80;;;;;;5490367;26;20210;-71
2024/04/13 04:46:04;;;;;;;8.27;6.50;;;9.80;73.20;;;;;;5490258;26;20258;-71
2024/04/13 04:48:30;;;;;;;8.80;6.45;;;9.80;72.40;;;;;;5490245;26;20253;-70
2024/04/13 04:51:00;;;;;;;8.13;5.20;;;9.80;72.40;;;;;;5489513;26;20700;-71
2024/04/13 04:53:29;;;;;;;7.72;6.28;;;9.80;72.80;;;;;;5490229;26;20447;-71
2024/04/13 04:55:58;;;;;;;6.97;5.20;;;9.70;74.20;;;;;;5490018;26;20573;-71
2024/04/13 04:58:24;;;;;;;8.98;6.30;;;9.70;74.70;;;;;;5489935;26;20218;-71
2024/04/13 05:00:53;;;;;;;6.53;5.45;;;9.80;73.50;;;;;;5489863;26;20230;-71
2024/04/13 05:03:19;;;;;;;6.38;5.47;;;9.70;73.90;;;;;;5489938;26;20317;-72
2024/04/13 05:05:49;;;;;;;5.43;4.90;;;9.80;73.90;;;;;;5488542;26;20230;-71
2024/04/13 05:08:16;;;;;;;6.25;4.85;;;9.80;74.00;;;;;;5489052;26;20230;-71
2024/04/13 05:10:56;;;;;;;8.75;4.57;;;9.80;74.10;;;;;;5489552;26;20245;-71
2024/04/13 05:13:22;;;;;;;6.60;5.53;;;9.80;74.50;;;;;;5490326;26;20334;-71
2024/04/13 05:15:50;;;;;;;15.40;7.50;;;9.80;75.20;;;;;;5490198;26;20260;-71
2024/04/13 05:18:16;;;;;;;6.80;5.35;;;9.80;78.10;;;;;;5489997;26;20264;-71
2024/04/13 05:20:45;;;;;;;10.80;6.47;;;9.80;78.30;;;;;;5489529;26;21465;-70
2024/04/13 05:23:11;;;;;;;6.50;5.40;;;9.90;78.60;;;;;;5490000;26;20447;-71
2024/04/13 05:25:39;;;;;;;5.90;5.18;;;9.90;79.20;;;;;;5489644;26;20248;-71
2024/04/13 05:28:09;;;;;;;6.65;5.63;;;10.00;78.90;;;;;;5489701;26;20277;-71
2024/04/13 05:30:38;;;;;;;7.55;5.45;;;10.10;79.80;;;;;;5489158;26;20222;-71
2024/04/13 05:33:06;;;;;;;7.82;5.65;;;10.20;80.00;;;;;;5489545;26;20239;-71
2024/04/13 05:35:35;;;;;;;6.88;5.95;;;10.30;80.20;;;;;;5489493;26;20255;-71
2024/04/13 05:38:01;;;;;;;7.93;5.70;;;10.40;79.10;;;;;;5489246;26;20258;-71
2024/04/13 05:40:29;;;;;;;9.13;5.50;;;10.60;79.00;;;;;;5488727;26;20230;-73
2024/04/13 05:42:55;;;;;;;6.28;5.07;;;10.60;80.10;;;;;;5452991;26;20445;-70
2024/04/13 05:45:27;;;;;;;8.73;6.20;;;10.70;81.10;;;;;;5452959;26;20267;-71
2024/04/13 05:47:53;;;;;;;11.82;7.68;;;10.80;81.60;;;;;;5453261;26;20262;-71
2024/04/13 05:50:22;;;;;;;7.10;6.00;;;10.90;82.00;;;;;;5453123;26;20219;-71
2024/04/13 05:52:48;;;;;;;7.10;5.53;;;11.00;82.90;;;;;;5487422;26;20467;-71
2024/04/13 05:55:17;;;;;;;6.60;5.25;;;11.10;83.20;;;;;;5489163;26;20262;-71
2024/04/13 05:57:43;;;;;;;7.15;5.50;;;11.30;84.20;;;;;;5489350;26;20214;-71
2024/04/13 06:00:13;;;;;;;7.63;5.03;;;11.40;83.50;;;;;;5489002;26;20252;-71
2024/04/13 06:02:41;;;;;;;6.07;5.18;;;11.60;83.90;;;;;;5486949;26;20463;-72
2024/04/13 06:05:11;;;;;;;9.50;4.72;;;11.70;82.70;;;;;;5487756;26;20272;-71
2024/04/13 06:07:37;;;;;;;8.48;6.82;;;11.80;82.70;;;;;;5489001;26;20218;-71
2024/04/13 06:10:07;;;;;;;5.30;4.75;;;12.00;82.70;;;;;;5488820;26;20257;-71
2024/04/13 06:12:34;;;;;;;8.18;6.00;;;12.10;82.20;;;;;;5488608;26;20269;-71
2024/04/13 06:15:02;;;;;;;5.80;4.47;;;12.20;81.90;;;;;;5488805;26;20231;-71
2024/04/13 06:17:28;;;;;;;7.33;5.43;;;12.40;81.80;;;;;;5490891;26;20560;-71
2024/04/13 06:20:00;;;;;;;6.90;5.30;;;12.50;80.90;;;;;;5492563;26;20865;-71
2024/04/13 06:22:26;;;;;;;6.67;5.60;;;12.60;81.20;;;;;;5491869;26;21069;-71
2024/04/13 06:24:54;;;;;;;5.93;4.30;;;12.70;80.90;;;;;;5493089;26;20440;-71
2024/04/13 06:27:21;;;;;;;7.97;5.10;;;12.80;80.30;;;;;;5492209;26;20514;-71
2024/04/13 06:29:51;;;;;;;7.47;5.13;;;13.00;81.50;;;;;;5492037;26;20951;-71
2024/04/13 06:32:17;;;;;;;6.07;4.47;;;13.10;80.50;;;;;;5491805;26;20483;-71
2024/04/13 06:34:46;;;;;;;8.30;4.40;;;13.20;80.70;;;;;;5492106;26;20495;-71
2024/04/13 06:37:16;;;;;;;6.27;4.33;;;13.40;81.90;;;;;;5492673;26;20497;-71
2024/04/13 06:39:44;;;;;;;6.10;4.83;;;13.50;82.70;;;;;;5491763;26;20581;-71
2024/04/13 06:42:10;;;;;;;7.67;5.03;;;13.70;84.10;;;;;;5491788;26;20455;-71
2024/04/13 06:44:39;;;;;;;6.27;4.20;;;13.80;84.20;;;;;;5492018;26;20779;-71
2024/04/13 06:47:05;;;;;;;6.23;3.87;;;14.00;84.70;;;;;;5491948;26;20452;-71
2024/04/13 06:49:34;;;;;;;5.00;3.30;;;14.20;82.70;;;;;;5492030;26;20483;-71
2024/04/13 06:52:00;;;;;;;6.83;4.50;;;14.30;77.30;;;;;;5491789;26;21092;-71
2024/04/13 06:54:31;;;;;;;6.37;4.03;;;14.50;76.10;;;;;;5492259;26;20447;-71
2024/04/13 06:56:57;;;;;;;5.23;4.13;;;14.60;76.70;;;;;;5491860;26;20848;-71
2024/04/13 06:59:25;;;;;;;5.90;3.93;;;14.80;76.20;;;;;;5491192;26;20491;-71
2024/04/13 07:01:51;;;;;;;4.73;3.50;;;14.90;77.40;;;;;;5491904;26;20452;-71
2024/04/13 07:04:20;;;;;;;4.50;3.40;;;15.10;75.80;;;;;;5491318;26;20528;-71
2024/04/13 07:06:46;;;;;;;5.27;3.60;;;15.20;74.80;;;;;;5492152;26;20467;-71
2024/04/13 07:09:15;;;;;;;5.27;3.83;;;15.40;75.10;;;;;;5491448;26;20459;-71
2024/04/13 07:11:43;;;;;;;8.60;3.60;;;15.60;73.00;;;;;;5491691;26;20443;-71
2024/04/13 07:14:12;;;;;;;4.27;3.60;;;15.80;72.80;;;;;;5491570;26;20454;-71
2024/04/13 07:16:38;;;;;;;8.90;3.70;;;16.00;70.90;;;;;;5480662;26;20467;-71
2024/04/13 07:19:07;;;;;;;6.53;2.73;;;16.20;68.70;;;;;;5488762;26;20476;-71
2024/04/13 07:21:41;;;;;;;5.27;2.60;;;16.20;67.20;;;;;;5490689;26;20876;-72
2024/04/13 07:24:10;;;;;;;8.80;3.00;;;16.40;69.00;;;;;;5491055;26;20785;-72
2024/04/13 07:26:36;;;;;;;5.83;3.37;;;16.60;70.30;;;;;;5527598;25;20569;-71
2024/04/13 07:29:07;;;;;;;7.43;3.20;;;17.00;68.80;;;;;;5505865;25;20882;-72
2024/04/13 07:31:33;;;;;;;6.03;2.53;;;17.50;67.00;;;;;;5490660;26;20508;-72
2024/04/13 07:34:01;;;;;;;8.03;2.83;;;17.90;66.60;;;;;;5489415;26;20454;-73
2024/04/13 07:36:27;;;;;;;5.17;2.30;;;18.50;62.90;;;;;;5490494;26;20486;-72
2024/04/13 07:38:56;;;;;;;4.10;2.63;;;19.00;60.50;;;;;;5489861;26;20466;-73
2024/04/13 07:41:22;;;;;;;4.63;2.40;;;19.50;62.10;;;;;;5490048;26;20605;-72
2024/04/13 07:43:51;;;;;;;6.40;2.70;;;20.00;56.50;;;;;;5486628;26;20472;-72
2024/04/13 07:46:21;;;;;;;4.23;2.20;;;20.50;53.90;;;;;;5488854;26;20511;-72
2024/04/13 07:48:49;;;;;;;5.17;2.40;;;21.00;53.20;;;;;;5489073;26;20996;-72
2024/04/13 07:51:15;;;;;;;4.97;2.50;;;21.50;54.70;;;;;;5489746;26;20452;-73
2024/04/13 07:53:44;;;;;;;5.30;2.17;;;22.00;56.60;;;;;;5489300;26;20506;-72
2024/04/13 07:56:10;;;;;;;5.40;2.80;;;22.50;55.50;;;;;;5488571;26;21029;-72
2024/04/13 07:58:38;;;;;;;4.67;1.90;;;23.00;53.80;;;;;;5489770;26;20451;-73
2024/04/13 08:01:04;;;;;;;5.63;2.13;;;23.60;51.90;;;;;;5489754;26;20448;-72
2024/04/13 08:03:35;;;;;;;6.30;2.50;;;24.20;50.10;;;;;;5489923;26;20443;-72
2024/04/13 08:06:02;;;;;;;4.07;2.20;;;24.70;47.90;;;;;;5487662;26;21033;-72
2024/04/13 08:08:30;;;;;;;5.03;2.50;;;25.30;48.40;;;;;;5489687;26;20599;-72
2024/04/13 08:10:56;;;;;;;4.93;2.30;;;25.80;47.50;;;;;;5488239;26;20519;-73
2024/04/13 08:13:25;;;;;;;3.53;1.87;;;26.40;45.60;;;;;;5489631;26;20467;-72
2024/04/13 08:15:51;;;;;;;4.27;2.53;;;26.80;45.00;;;;;;5485749;26;20460;-72
2024/04/13 08:18:19;;;;;;;6.10;2.70;;;27.10;43.60;;;;;;5516071;26;20517;-73
2024/04/13 08:20:48;;;;;;;4.10;2.07;;;27.60;42.20;;;;;;5506389;25;20460;-72
2024/04/13 08:23:22;;;;;;;7.43;2.60;;;28.00;39.90;;;;;;5488678;26;20467;-73
2024/04/13 08:25:48;;;;;;;5.93;2.27;;;28.30;39.70;;;;;;5488016;26;20467;-70
2024/04/13 08:28:16;;;;;;;4.07;2.07;;;28.60;39.80;;;;;;5489303;26;20535;-70
2024/04/13 08:30:43;;;;;;;3.63;2.10;;;29.00;39.00;;;;;;5488221;26;20464;-71
2024/04/13 08:33:11;;;;;;;5.03;1.97;;;29.30;37.20;;;;;;5488501;26;20798;-70
2024/04/13 08:35:37;;;;;;;6.87;2.70;;;29.60;35.60;;;;;;5508040;26;20465;-70
2024/04/13 08:38:08;;;;;;;4.03;2.20;;;29.80;35.30;;;;;;5502481;25;20518;-70
2024/04/13 08:40:34;;;;;;;3.70;2.30;;;30.10;34.30;;;;;;5508860;26;20836;-70
2024/04/13 08:43:06;;;;;;;6.73;2.30;;;30.20;29.60;;;;;;5487398;26;20459;-70
2024/04/13 08:45:34;;;;;;;8.53;2.63;;;30.20;31.30;;;;;;5488644;26;20467;-70
2024/04/13 08:48:04;;;;;;;5.43;1.97;;;30.40;30.90;;;;;;5488511;26;20467;-70
2024/04/13 08:50:31;;;;;;;3.93;2.00;;;30.60;30.00;;;;;;5488685;26;21029;-70
2024/04/13 08:53:00;;;;;;;6.47;3.00;;;30.80;29.30;;;;;;5488991;26;20447;-70
2024/04/13 08:55:28;;;;;;;4.30;2.27;;;31.10;27.60;;;;;;5489113;26;20451;-70
2024/04/13 08:57:58;;;;;;;5.70;1.97;;;31.10;27.20;;;;;;5488934;26;20467;-70
2024/04/13 09:00:24;;;;;;;5.43;2.10;;;31.20;27.30;;;;;;5488659;26;20815;-70
2024/04/13 09:02:58;;;;;;;6.87;2.13;;;31.10;26.00;;;;;;5488904;26;20459;-70
2024/04/13 09:05:25;;;;;;;4.30;2.20;;;31.20;27.20;;;;;;5488535;26;20515;-70
2024/04/13 09:07:58;;;;;;;3.90;2.00;;;31.50;26.90;;;;;;5488892;26;20435;-70
2024/04/13 09:10:24;;;;;;;6.60;2.23;;;31.70;25.40;;;;;;5488934;26;20455;-70
2024/04/13 09:12:55;;;;;;;3.50;2.00;;;31.90;26.40;;;;;;5488439;26;21027;-70
2024/04/13 09:15:21;;;;;;;5.97;2.03;;;32.20;27.10;;;;;;5488663;26;20507;-71
2024/04/13 09:17:52;;;;;;;4.50;2.00;;;32.40;26.90;;;;;;5488534;26;20452;-70
2024/04/13 09:20:20;;;;;;;8.07;1.83;;;32.60;26.20;;;;;;5488490;26;20455;-70
2024/04/13 09:22:49;;;;;;;5.83;2.00;;;32.80;25.10;;;;;;5488497;26;20497;-70
2024/04/13 09:25:22;;;;;;;4.83;2.10;;;32.90;23.70;;;;;;5488938;26;20444;-70
2024/04/13 09:28:04;;;;;;;8.83;2.43;;;33.00;24.90;;;;;;5488266;26;20448;-71
2024/04/13 09:30:30;;;;;;;5.13;2.10;;;33.20;25.40;;;;;;5488587;26;20602;-71
2024/04/13 09:33:03;;;;;;;4.63;2.20;;;33.30;25.40;;;;;;5488222;26;20455;-71
2024/04/13 09:35:29;;;;;;;4.37;1.80;;;33.30;25.30;;;;;;5488701;26;20588;-70
2024/04/13 09:37:59;;;;;;;3.90;2.10;;;33.30;25.50;;;;;;5488377;26;20447;-70
2024/04/13 09:40:26;;;;;;;5.77;2.40;;;33.50;25.90;;;;;;5487856;26;20483;-70
2024/04/13 09:42:55;;;;;;;7.10;1.60;;;33.70;24.80;;;;;;5487220;26;20511;-70
2024/04/13 09:45:24;;;;;;;4.33;2.20;;;33.70;24.10;;;;;;5487296;26;20523;-70
2024/04/13 09:47:55;;;;;;;7.40;2.60;;;33.60;23.90;;;;;;5487753;26;20547;-70
2024/04/13 09:50:21;;;;;;;3.70;2.23;;;33.70;23.60;;;;;;5487314;26;21000;-70
2024/04/13 09:52:51;;;;;;;5.13;1.80;;;33.80;24.10;;;;;;5490179;26;20511;-70
2024/04/13 09:55:18;;;;;;;3.87;1.80;;;34.10;23.20;;;;;;5490843;26;20455;-70
2024/04/13 09:57:49;;;;;;;6.50;1.97;;;34.20;23.70;;;;;;5491469;26;20468;-70
2024/04/13 10:00:16;;;;;;;10.60;2.13;;;34.30;22.70;;;;;;5490782;26;20511;-70
2024/04/13 10:02:48;;;;;;;6.63;2.53;;;34.50;23.20;;;;;;5471471;26;20894;-70
2024/04/13 10:05:14;;;;;;;4.10;1.80;;;34.50;22.40;;;;;;5490212;26;20463;-70
2024/04/13 10:07:43;;;;;;;4.83;1.87;;;34.70;22.10;;;;;;5490918;26;20452;-70
2024/04/13 10:10:13;;;;;;;9.83;2.27;;;34.70;22.80;;;;;;5491182;26;20463;-70
2024/04/13 10:12:43;;;;;;;5.03;2.10;;;34.80;22.60;;;;;;5491098;26;20867;-70
2024/04/13 10:15:10;;;;;;;5.70;2.03;;;34.90;21.20;;;;;;5513479;26;20461;-70
2024/04/13 10:17:41;;;;;;;5.30;2.10;;;34.80;21.50;;;;;;5493930;25;20503;-70
2024/04/13 10:20:10;;;;;;;5.50;2.07;;;34.50;21.90;;;;;;5490596;26;20463;-70
2024/04/13 10:22:39;;;;;;;4.63;2.20;;;34.30;23.00;;;;;;5490701;26;20813;-70
2024/04/13 10:25:07;;;;;;;5.07;2.10;;;34.40;23.30;;;;;;5490745;26;20531;-70
2024/04/13 10:27:38;;;;;;;4.93;2.13;;;34.50;22.30;;;;;;5489289;26;20471;-70
2024/04/13 10:30:05;;;;;;;4.60;1.73;;;34.70;22.90;;;;;;5490049;26;20845;-70
2024/04/13 10:32:34;;;;;;;6.07;2.20;;;34.60;20.00;;;;;;5490184;26;20538;-71
2024/04/13 10:35:11;;;;;;;5.93;2.57;;;34.50;19.90;;;;;;5489711;26;20459;-70
2024/04/13 10:37:40;;;;;;;3.57;1.77;;;34.20;20.10;;;;;;5490554;26;20530;-70
2024/04/13 10:40:07;;;;;;;4.67;2.03;;;33.90;20.00;;;;;;5490228;26;20519;-70
2024/04/13 10:42:39;;;;;;;5.60;1.70;;;33.70;22.00;;;;;;5491631;26;20463;-70
2024/04/13 10:45:10;;;;;;;4.30;2.03;;;33.60;22.30;;;;;;5488416;26;20781;-70
2024/04/13 10:47:41;;;;;;;4.43;2.00;;;33.50;22.20;;;;;;5490285;26;20459;-70
2024/04/13 10:50:13;;;;;;;5.00;1.80;;;33.50;20.40;;;;;;5490558;26;20455;-70
2024/04/13 10:52:42;;;;;;;4.10;1.77;;;33.60;21.20;;;;;;5490901;26;20495;-70
2024/04/13 10:55:11;;;;;;;7.70;1.73;;;33.40;20.50;;;;;;5490356;26;20455;-70
2024/04/13 10:57:43;;;;;;;6.50;1.70;;;33.40;20.90;;;;;;5489931;26;20505;-70
2024/04/13 11:00:10;;;;;;;4.70;1.67;;;33.30;22.60;;;;;;5490004;26;21039;-70
2024/04/13 11:02:41;;;;;;;4.30;1.80;;;33.30;20.90;;;;;;5489506;26;20443;-70
2024/04/13 11:05:15;;;;;;;3.93;1.90;;;33.40;21.90;;;;;;5489737;26;20526;-73
2024/04/13 11:07:46;;;;;;;6.77;1.80;;;33.30;19.90;;;;;;5490653;26;20452;-72
2024/04/13 11:10:13;;;;;;;5.10;2.10;;;33.20;19.20;;;;;;5491303;26;20520;-70
2024/04/13 11:12:41;;;;;;;3.10;1.80;;;33.20;19.70;;;;;;5490534;26;20451;-70
2024/04/13 11:15:08;;;;;;;5.67;1.73;;;33.30;20.40;;;;;;5490575;26;20451;-70
2024/04/13 11:17:36;;;;;;;3.30;1.67;;;33.30;20.70;;;;;;5490512;26;20455;-70
2024/04/13 11:20:03;;;;;;;3.33;1.70;;;33.30;20.60;;;;;;5490534;26;20443;-70
2024/04/13 11:22:32;;;;;;;4.40;1.40;;;33.30;20.30;;;;;;5490281;26;21028;-70
2024/04/13 11:25:02;;;;;;;6.53;2.47;;;33.30;20.40;;;;;;5490443;26;20580;-70
2024/04/13 11:27:30;;;;;;;4.17;1.60;;;33.40;21.20;;;;;;5490016;26;20459;-70
2024/04/13 11:29:57;;;;;;;4.50;1.87;;;33.30;20.50;;;;;;5490323;26;21030;-70
2024/04/13 11:32:27;;;;;;;4.60;2.00;;;33.30;19.60;;;;;;5490487;26;20507;-70
2024/04/13 11:34:53;;;;;;;2.70;1.60;;;33.20;19.20;;;;;;5490189;26;20451;-70
2024/04/13 11:37:24;;;;;;;4.40;1.40;;;32.80;18.50;;;;;;5489777;26;20508;-70
2024/04/13 11:39:51;;;;;;;4.40;1.90;;;32.60;20.90;;;;;;5489993;26;20530;-70
2024/04/13 11:42:24;;;;;;;8.00;2.60;;;32.60;21.10;;;;;;5490118;26;20781;-70
2024/04/13 11:44:51;;;;;;;4.63;1.70;;;32.60;20.30;;;;;;5490126;26;20455;-70
2024/04/13 11:47:20;;;;;;;4.10;1.67;;;32.60;21.30;;;;;;5489720;26;20681;-72
2024/04/13 11:49:46;;;;;;;3.60;1.70;;;32.50;20.80;;;;;;5489995;26;20451;-70
2024/04/13 11:52:17;;;;;;;4.53;2.00;;;32.40;22.20;;;;;;5489787;26;20519;-70
2024/04/13 11:54:43;;;;;;;6.43;2.20;;;32.40;21.00;;;;;;5490196;26;20455;-71
2024/04/13 11:57:13;;;;;;;3.53;1.70;;;32.50;21.20;;;;;;5489330;26;20459;-70
2024/04/13 11:59:44;;;;;;;3.50;1.97;;;32.60;21.60;;;;;;5489762;26;20459;-70
2024/04/13 12:02:13;;;;;;;4.23;1.60;;;32.50;21.30;;;;;;5489764;26;20507;-70
2024/04/13 12:04:40;;;;;;;2.70;1.40;;;32.50;21.30;;;;;;5489590;26;20447;-70
2024/04/13 12:07:12;;;;;;;5.20;1.80;;;32.30;21.10;;;;;;5489339;26;20459;-71
2024/04/13 12:09:38;;;;;;;5.90;2.10;;;32.10;22.10;;;;;;5489149;26;20806;-70
2024/04/13 12:12:11;;;;;;;5.60;2.03;;;32.10;21.20;;;;;;5489192;26;20805;-70
2024/04/13 12:14:42;;;;;;;4.27;1.97;;;32.00;21.70;;;;;;5488206;26;20868;-71
2024/04/13 12:17:11;;;;;;;5.40;1.70;;;31.90;22.70;;;;;;5489702;26;20628;-70
2024/04/13 12:19:37;;;;;;;3.30;1.60;;;31.90;21.60;;;;;;5489472;26;20451;-70
2024/04/13 12:22:06;;;;;;;4.23;1.97;;;31.80;22.10;;;;;;5488970;26;20517;-70
2024/04/13 12:24:32;;;;;;;6.93;2.07;;;31.80;21.80;;;;;;5489033;26;20452;-70
2024/04/13 12:27:03;;;;;;;4.03;1.60;;;31.70;22.60;;;;;;5489091;26;20945;-70
2024/04/13 12:29:29;;;;;;;3.97;1.70;;;31.70;23.40;;;;;;5489875;26;20447;-70
2024/04/13 12:32:02;;;;;;;4.50;1.73;;;31.80;23.10;;;;;;5484138;26;20512;-70
2024/04/13 12:34:29;;;;;;;8.53;2.07;;;31.80;23.20;;;;;;5484219;26;20483;-70
2024/04/13 12:37:00;;;;;;;4.03;1.97;;;31.70;23.10;;;;;;5478018;26;20451;-70
2024/04/13 12:39:27;;;;;;;5.60;2.20;;;31.60;23.30;;;;;;5488025;26;20614;-70
2024/04/13 12:41:55;;;;;;;4.57;1.83;;;31.50;24.00;;;;;;5489044;26;20519;-70
2024/04/13 12:44:24;;;;;;;3.20;1.80;;;31.40;23.40;;;;;;5487706;26;20451;-72
2024/04/13 12:46:50;;;;;;;5.43;1.93;;;31.20;23.90;;;;;;5448114;26;20603;-70
2024/04/13 12:49:21;;;;;;;4.70;1.60;;;31.10;24.70;;;;;;5450904;26;20966;-70
2024/04/13 12:51:47;;;;;;;6.33;1.67;;;31.10;24.80;;;;;;5468865;26;20463;-72
2024/04/13 12:54:16;;;;;;;5.03;2.10;;;31.00;25.60;;;;;;5488653;26;20499;-69